Time;durP1;ratioP1;P1;durP2;ratioP2;P2;SDS_P1;SDS_P2;PMS_P1;PMS_P2;Temp;Humidity;BMP_temperature;BMP_pressure;BME280_temperature;BME280_humidity;BME280_pressure;Samples;Min_cycle;Max_cycle;Signal;HPM_P1;HPM_P2
2023/06/12 00:00:30;;;;;;;5.20;4.63;;;19.80;82.00;;;;;;5010287;28;20043;-44
2023/06/12 00:02:57;;;;;;;7.78;4.82;;;19.70;81.90;;;;;;5016859;28;20048;-44
2023/06/12 00:05:23;;;;;;;4.88;4.25;;;19.70;82.20;;;;;;5034634;28;20384;-44
2023/06/12 00:07:55;;;;;;;6.68;4.72;;;19.60;82.40;;;;;;5037562;28;20048;-43
2023/06/12 00:10:21;;;;;;;7.28;4.75;;;19.60;82.40;;;;;;5030818;28;20048;-44
2023/06/12 00:12:47;;;;;;;5.63;5.00;;;19.50;82.50;;;;;;5027199;28;20042;-43
2023/06/12 00:15:12;;;;;;;7.45;4.90;;;19.40;82.60;;;;;;5026260;28;20443;-43
2023/06/12 00:17:38;;;;;;;7.45;4.22;;;19.50;83.10;;;;;;5032825;28;20111;-44
2023/06/12 00:20:05;;;;;;;4.70;4.15;;;19.40;83.10;;;;;;5032392;28;20045;-45
2023/06/12 00:22:30;;;;;;;5.15;4.20;;;19.40;83.20;;;;;;5032762;28;20045;-44
2023/06/12 00:24:56;;;;;;;6.35;4.43;;;19.30;83.00;;;;;;5032621;28;20041;-45
2023/06/12 00:27:22;;;;;;;7.05;4.22;;;19.30;83.40;;;;;;5032064;28;20383;-44
2023/06/12 00:29:47;;;;;;;5.38;4.50;;;19.30;83.60;;;;;;5031292;28;20399;-44
2023/06/12 00:32:13;;;;;;;6.25;3.85;;;19.20;84.40;;;;;;5031421;28;20045;-45
2023/06/12 00:34:38;;;;;;;4.25;3.83;;;19.20;84.20;;;;;;5032355;28;20475;-44
2023/06/12 00:37:05;;;;;;;4.97;3.95;;;19.10;84.40;;;;;;4993845;28;20354;-45
2023/06/12 00:39:30;;;;;;;7.35;4.00;;;19.10;84.70;;;;;;5026961;28;20053;-43
2023/06/12 00:41:56;;;;;;;4.57;3.80;;;19.00;85.10;;;;;;5028943;28;20128;-44
2023/06/12 00:44:22;;;;;;;5.47;4.03;;;18.90;85.20;;;;;;5023009;28;20378;-45
2023/06/12 00:46:49;;;;;;;7.63;3.78;;;18.90;85.30;;;;;;5025979;28;20053;-44
2023/06/12 00:49:15;;;;;;;5.97;3.88;;;18.90;86.10;;;;;;5023811;28;20087;-45
2023/06/12 00:51:42;;;;;;;6.38;4.00;;;18.80;86.10;;;;;;5022968;28;20045;-44
2023/06/12 00:54:07;;;;;;;4.20;3.60;;;18.70;86.90;;;;;;5005105;28;20132;-45
2023/06/12 00:56:33;;;;;;;6.32;3.50;;;18.70;87.60;;;;;;5003330;28;20132;-46
2023/06/12 00:58:59;;;;;;;7.60;3.75;;;18.70;87.60;;;;;;5024324;28;20120;-43
2023/06/12 01:01:25;;;;;;;6.07;3.78;;;18.60;88.40;;;;;;5019090;28;20049;-44
2023/06/12 01:03:57;;;;;;;7.15;3.92;;;18.50;88.40;;;;;;5018592;28;20485;-44
2023/06/12 01:06:33;;;;;;;4.70;3.47;;;18.50;88.90;;;;;;4995321;28;20054;-44
2023/06/12 01:09:48;;;;;;;4.85;3.67;;;18.50;89.20;;;;;;5016393;28;20056;-44
2023/06/12 01:12:15;;;;;;;6.50;3.83;;;18.40;90.00;;;;;;5008738;28;20061;-43
2023/06/12 01:14:45;;;;;;;5.55;3.47;;;18.30;90.40;;;;;;5009578;28;20046;-44
2023/06/12 01:17:10;;;;;;;4.22;3.28;;;18.30;90.70;;;;;;5009396;28;20405;-44
2023/06/12 01:19:36;;;;;;;5.93;3.72;;;18.30;90.90;;;;;;5017990;28;20273;-44
2023/06/12 01:22:08;;;;;;;6.20;3.60;;;18.20;91.10;;;;;;5030992;28;20103;-44
2023/06/12 01:24:57;;;;;;;5.03;3.75;;;18.10;91.50;;;;;;5030994;28;20049;-43
2023/06/12 01:27:56;;;;;;;6.65;3.58;;;18.10;91.80;;;;;;5031281;28;20049;-44
2023/06/12 01:30:54;;;;;;;7.20;3.60;;;18.00;92.60;;;;;;5015914;28;20050;-45
2023/06/12 01:33:30;;;;;;;4.13;3.25;;;18.00;93.30;;;;;;4930304;29;20087;-45
2023/06/12 01:35:58;;;;;;;5.05;3.70;;;18.00;93.60;;;;;;4932110;29;20588;-44
2023/06/12 01:38:28;;;;;;;4.97;3.30;;;18.00;93.70;;;;;;4916538;29;20060;-45
2023/06/12 01:40:55;;;;;;;4.85;3.60;;;17.90;93.90;;;;;;4951470;29;20107;-43
2023/06/12 01:43:24;;;;;;;6.90;3.55;;;17.90;94.30;;;;;;4936671;29;20054;-45
2023/06/12 01:45:50;;;;;;;5.22;3.40;;;17.80;94.90;;;;;;4944476;29;20429;-43
2023/06/12 01:48:16;;;;;;;7.53;3.42;;;17.80;95.40;;;;;;4935341;29;20063;-43
2023/06/12 01:50:44;;;;;;;4.97;3.40;;;17.80;96.30;;;;;;4937247;29;20056;-44
2023/06/12 01:53:10;;;;;;;4.03;3.72;;;17.70;96.60;;;;;;4947306;29;20047;-45
2023/06/12 01:55:37;;;;;;;6.88;3.30;;;17.70;96.60;;;;;;4944868;29;20052;-45
2023/06/12 01:58:03;;;;;;;7.20;3.60;;;17.70;97.20;;;;;;4931935;29;20063;-45
2023/06/12 02:00:28;;;;;;;4.78;3.63;;;17.60;97.90;;;;;;4927473;29;20552;-43
2023/06/12 02:02:56;;;;;;;6.45;3.50;;;17.60;98.10;;;;;;4926423;29;20056;-44
2023/06/12 02:05:22;;;;;;;5.90;3.38;;;17.50;99.30;;;;;;4927553;29;20107;-44
2023/06/12 02:07:48;;;;;;;8.63;3.50;;;17.50;99.50;;;;;;4926736;29;20048;-43
2023/06/12 02:10:15;;;;;;;4.28;3.40;;;17.40;99.90;;;;;;4972658;28;20120;-45
2023/06/12 02:12:40;;;;;;;6.13;3.30;;;17.40;99.90;;;;;;5022056;28;20099;-45
2023/06/12 02:15:07;;;;;;;8.95;3.75;;;17.30;99.90;;;;;;5018936;28;20293;-43
2023/06/12 02:17:33;;;;;;;5.25;3.50;;;17.30;99.90;;;;;;5019577;28;20137;-43
2023/06/12 02:20:00;;;;;;;5.63;3.30;;;17.20;99.90;;;;;;5034845;28;20060;-46
2023/06/12 02:22:25;;;;;;;7.10;3.53;;;17.20;99.90;;;;;;5034170;28;20048;-45
2023/06/12 02:24:51;;;;;;;6.47;3.50;;;17.20;99.90;;;;;;4999783;28;20128;-45
2023/06/12 02:27:17;;;;;;;7.75;3.25;;;17.10;99.90;;;;;;5031732;28;20042;-44
2023/06/12 02:29:42;;;;;;;7.00;3.40;;;17.00;99.90;;;;;;5023190;28;20038;-43
2023/06/12 02:32:08;;;;;;;5.50;3.30;;;17.00;99.90;;;;;;5034270;28;20077;-45
2023/06/12 02:34:33;;;;;;;8.38;4.10;;;17.00;99.90;;;;;;5031722;28;20376;-44
2023/06/12 02:36:59;;;;;;;5.78;3.80;;;16.90;99.90;;;;;;5036129;22;20057;-51
2023/06/12 02:39:25;;;;;;;5.80;3.55;;;16.90;99.90;;;;;;4999382;28;20435;-50
2023/06/12 02:41:50;;;;;;;5.57;3.70;;;16.80;99.90;;;;;;5002304;28;20121;-53
2023/06/12 02:44:16;;;;;;;5.82;3.67;;;16.80;99.90;;;;;;4991255;28;20086;-49
2023/06/12 02:46:56;;;;;;;5.97;3.70;;;16.70;99.90;;;;;;4995509;28;20043;-51
2023/06/12 02:49:23;;;;;;;5.30;3.58;;;16.70;99.90;;;;;;4999835;28;20046;-52
2023/06/12 02:51:48;;;;;;;5.28;3.47;;;16.70;99.90;;;;;;5013598;28;20105;-52
2023/06/12 02:54:15;;;;;;;5.53;3.50;;;16.70;99.90;;;;;;5003936;28;20121;-49
2023/06/12 02:56:46;;;;;;;8.43;3.88;;;16.70;99.90;;;;;;5001396;28;20057;-49
2023/06/12 02:59:20;;;;;;;9.57;3.38;;;16.60;99.90;;;;;;4987095;28;20046;-52
2023/06/12 03:01:45;;;;;;;7.18;4.03;;;16.60;99.90;;;;;;4999403;28;20601;-51
2023/06/12 03:04:19;;;;;;;8.18;3.55;;;16.50;99.90;;;;;;5002429;28;20030;-53
2023/06/12 03:06:45;;;;;;;5.72;3.80;;;16.50;99.90;;;;;;4999855;28;20493;-52
2023/06/12 03:09:12;;;;;;;6.78;3.63;;;16.50;99.90;;;;;;5002606;28;20113;-51
2023/06/12 03:11:38;;;;;;;5.45;3.72;;;16.40;99.90;;;;;;5063183;22;20522;-51
2023/06/12 03:14:05;;;;;;;8.20;3.70;;;16.40;99.90;;;;;;5038387;28;20042;-53
2023/06/12 03:16:31;;;;;;;7.07;3.80;;;16.40;99.90;;;;;;5039098;28;20425;-53
2023/06/12 03:18:57;;;;;;;5.72;4.07;;;16.40;99.90;;;;;;5038431;28;20405;-50
2023/06/12 03:21:23;;;;;;;6.25;3.35;;;16.40;99.90;;;;;;5039972;28;20029;-52
2023/06/12 03:23:49;;;;;;;5.63;3.58;;;16.30;99.90;;;;;;5039708;28;20127;-49
2023/06/12 03:26:15;;;;;;;6.80;3.60;;;16.30;99.90;;;;;;5042700;28;20075;-54
2023/06/12 03:28:42;;;;;;;8.25;4.20;;;16.30;99.90;;;;;;5035307;28;20400;-51
2023/06/12 03:31:07;;;;;;;8.10;3.88;;;16.30;99.90;;;;;;5038836;28;20041;-50
2023/06/12 03:33:33;;;;;;;7.78;3.88;;;16.30;99.90;;;;;;5040518;28;20111;-51
2023/06/12 03:35:58;;;;;;;7.93;3.80;;;16.30;99.90;;;;;;5041409;28;20061;-53
2023/06/12 03:38:24;;;;;;;11.02;3.78;;;16.30;99.90;;;;;;5036605;28;20053;-54
2023/06/12 03:40:50;;;;;;;5.97;3.80;;;16.30;99.90;;;;;;5033402;28;20049;-49
2023/06/12 03:43:15;;;;;;;5.55;3.72;;;16.30;99.90;;;;;;5036039;28;20510;-51
2023/06/12 03:45:41;;;;;;;5.13;3.58;;;16.30;99.90;;;;;;5035352;28;20040;-51
2023/06/12 03:48:06;;;;;;;6.85;4.15;;;16.30;99.90;;;;;;5035417;28;20474;-54
2023/06/12 03:50:32;;;;;;;8.80;4.03;;;16.30;99.90;;;;;;5035093;28;20048;-55
2023/06/12 03:52:57;;;;;;;7.30;3.83;;;16.30;99.90;;;;;;5037347;28;20065;-53
2023/06/12 03:55:24;;;;;;;8.43;3.72;;;16.30;99.90;;;;;;5037575;28;20140;-49
2023/06/12 03:57:50;;;;;;;6.50;3.60;;;16.30;99.90;;;;;;5034693;28;20402;-51
2023/06/12 04:00:16;;;;;;;9.05;4.13;;;16.40;99.90;;;;;;5029059;28;20037;-52
2023/06/12 04:02:43;;;;;;;8.23;4.30;;;16.30;99.90;;;;;;5034225;28;20478;-49
2023/06/12 04:05:08;;;;;;;7.40;3.60;;;16.40;99.90;;;;;;5038708;28;20103;-49
2023/06/12 04:07:36;;;;;;;6.05;3.83;;;16.40;99.90;;;;;;5030950;28;20046;-51
2023/06/12 04:10:03;;;;;;;7.55;3.75;;;16.40;99.90;;;;;;5034645;28;20058;-49
2023/06/12 04:12:29;;;;;;;8.00;4.50;;;16.40;99.90;;;;;;5031889;28;20120;-49
2023/06/12 04:14:55;;;;;;;10.82;4.22;;;16.50;99.90;;;;;;5046000;28;20041;-51
2023/06/12 04:17:21;;;;;;;8.15;4.28;;;16.50;99.90;;;;;;5035033;28;20192;-49
2023/06/12 04:19:48;;;;;;;6.57;3.90;;;16.50;99.90;;;;;;5034367;28;20037;-49
2023/06/12 04:22:15;;;;;;;7.17;3.97;;;16.50;99.90;;;;;;5036719;28;20087;-49
2023/06/12 04:24:42;;;;;;;8.07;4.00;;;16.60;99.90;;;;;;5028751;28;20034;-50
2023/06/12 04:27:10;;;;;;;11.07;3.83;;;16.70;99.90;;;;;;5043380;28;20050;-49
2023/06/12 04:29:42;;;;;;;4.90;3.65;;;16.70;99.90;;;;;;5030677;28;20408;-50
2023/06/12 04:32:09;;;;;;;8.00;4.35;;;16.70;99.90;;;;;;5015283;28;20061;-54
2023/06/12 04:34:40;;;;;;;6.28;4.10;;;16.90;99.90;;;;;;5020259;28;20042;-50
2023/06/12 04:37:08;;;;;;;6.43;3.80;;;19.20;99.90;;;;;;5037679;28;20048;-50
2023/06/12 04:39:38;;;;;;;6.18;3.70;;;19.80;99.90;;;;;;5036823;28;20038;-49
2023/06/12 04:42:05;;;;;;;8.18;3.90;;;20.40;99.90;;;;;;5039202;28;20045;-50
2023/06/12 04:44:34;;;;;;;6.75;3.55;;;20.80;99.90;;;;;;5036525;28;20053;-53
2023/06/12 04:47:08;;;;;;;6.15;3.95;;;22.00;99.90;;;;;;5036883;28;20048;-51
2023/06/12 04:49:35;;;;;;;7.57;3.65;;;21.80;99.90;;;;;;5031371;28;20041;-52
2023/06/12 04:52:03;;;;;;;6.90;3.70;;;22.20;99.90;;;;;;5034115;28;20068;-54
2023/06/12 04:54:31;;;;;;;;;;;23.30;99.90;;;;;;5029153;28;20047;-53
2023/06/12 04:56:57;;;;;;;7.38;4.18;;;23.20;99.90;;;;;;5026460;28;19928;-55
2023/06/12 04:59:22;;;;;;;7.90;3.90;;;23.40;99.90;;;;;;5028961;28;20761;-54
2023/06/12 05:01:48;;;;;;;7.15;4.05;;;23.70;99.90;;;;;;5029825;28;20046;-49
2023/06/12 05:04:14;;;;;;;7.97;4.40;;;24.20;99.90;;;;;;5029111;28;20041;-52
2023/06/12 05:06:40;;;;;;;6.82;3.85;;;24.70;99.30;;;;;;5026988;28;20029;-50
2023/06/12 05:09:07;;;;;;;5.28;3.83;;;25.10;97.80;;;;;;5029354;28;20044;-53
2023/06/12 05:11:33;;;;;;;9.85;4.20;;;25.40;96.70;;;;;;5031186;28;20057;-50
2023/06/12 05:13:58;;;;;;;9.25;4.15;;;25.30;96.50;;;;;;5030998;28;20064;-51
2023/06/12 05:16:24;;;;;;;5.90;4.18;;;25.00;95.10;;;;;;5028420;28;20052;-51
2023/06/12 05:18:51;;;;;;;7.47;4.30;;;24.90;95.40;;;;;;5025015;28;20044;-52
2023/06/12 05:21:19;;;;;;;7.72;3.97;;;25.10;95.30;;;;;;5029176;28;20076;-54
2023/06/12 05:23:44;;;;;;;7.68;4.30;;;25.10;95.20;;;;;;5028081;28;20529;-50
2023/06/12 05:26:10;;;;;;;7.03;4.00;;;25.70;95.10;;;;;;5028624;28;20042;-50
2023/06/12 05:28:36;;;;;;;9.63;4.57;;;25.70;94.80;;;;;;5025617;28;20038;-51
2023/06/12 05:31:03;;;;;;;8.65;4.30;;;26.10;94.30;;;;;;5027687;28;20064;-53
2023/06/12 05:33:29;;;;;;;7.45;4.32;;;25.50;93.90;;;;;;5029649;28;20375;-51
2023/06/12 05:35:55;;;;;;;6.68;4.25;;;25.50;93.30;;;;;;5026785;28;20076;-53
2023/06/12 05:38:22;;;;;;;8.98;4.72;;;26.00;93.70;;;;;;5030325;28;20076;-52
2023/06/12 05:40:47;;;;;;;5.10;4.30;;;25.50;92.60;;;;;;5027636;28;20049;-52
2023/06/12 05:43:13;;;;;;;9.35;4.60;;;26.10;93.60;;;;;;5024583;28;20201;-53
2023/06/12 05:45:38;;;;;;;12.18;5.13;;;26.30;92.20;;;;;;5025040;28;20051;-53
2023/06/12 05:48:04;;;;;;;7.95;4.63;;;26.00;92.20;;;;;;5027457;28;20256;-51
2023/06/12 05:50:30;;;;;;;11.35;4.65;;;26.40;92.60;;;;;;5017045;28;20099;-53
2023/06/12 05:52:56;;;;;;;6.40;4.43;;;26.60;92.20;;;;;;5031610;28;20041;-54
2023/06/12 05:55:21;;;;;;;6.60;4.10;;;26.80;91.90;;;;;;5028409;28;20053;-54
2023/06/12 05:57:47;;;;;;;6.45;4.50;;;27.10;91.90;;;;;;5027716;28;20520;-52
2023/06/12 06:00:13;;;;;;;5.40;3.90;;;27.80;91.70;;;;;;5029717;28;20044;-55
2023/06/12 06:02:39;;;;;;;8.20;4.22;;;28.20;91.50;;;;;;5027877;28;20041;-54
2023/06/12 06:05:09;;;;;;;6.80;4.78;;;28.00;91.00;;;;;;5028809;28;20052;-51
2023/06/12 06:07:36;;;;;;;9.18;4.80;;;28.10;90.10;;;;;;5026648;28;20050;-53
2023/06/12 06:10:04;;;;;;;5.15;4.30;;;28.30;89.10;;;;;;5028520;28;20132;-52
2023/06/12 06:12:29;;;;;;;9.68;4.38;;;28.10;88.00;;;;;;5028286;28;20476;-52
2023/06/12 06:14:55;;;;;;;9.15;4.25;;;27.90;88.50;;;;;;5026619;28;20042;-54
2023/06/12 06:17:20;;;;;;;7.20;4.57;;;28.20;88.00;;;;;;5027917;28;20041;-51
2023/06/12 06:19:46;;;;;;;11.95;4.43;;;27.70;88.10;;;;;;5037387;28;20465;-55
2023/06/12 06:22:12;;;;;;;7.03;4.47;;;28.40;88.90;;;;;;5039549;28;20041;-54
2023/06/12 06:24:37;;;;;;;6.63;4.65;;;28.60;87.10;;;;;;5042415;28;20130;-56
2023/06/12 06:27:03;;;;;;;7.20;4.47;;;28.90;86.70;;;;;;5039827;28;20117;-54
2023/06/12 06:29:29;;;;;;;9.27;4.57;;;29.00;86.70;;;;;;5037516;28;20033;-54
2023/06/12 06:31:55;;;;;;;9.85;4.45;;;28.80;85.10;;;;;;5048082;28;20056;-55
2023/06/12 06:34:21;;;;;;;7.25;4.63;;;28.70;85.40;;;;;;5034465;28;20056;-56
2023/06/12 06:36:47;;;;;;;10.75;4.70;;;28.80;84.00;;;;;;5037009;28;20041;-55
2023/06/12 06:39:12;;;;;;;8.50;4.63;;;28.30;83.90;;;;;;5031768;28;20046;-53
2023/06/12 06:41:38;;;;;;;5.95;4.20;;;28.40;84.70;;;;;;5037366;28;20069;-54
2023/06/12 06:44:04;;;;;;;13.13;4.13;;;28.50;85.20;;;;;;5037014;28;20052;-53
2023/06/12 06:46:29;;;;;;;7.28;4.53;;;28.70;84.50;;;;;;5036621;28;20045;-56
2023/06/12 06:48:55;;;;;;;6.40;4.75;;;28.90;84.50;;;;;;5037872;28;20160;-52
2023/06/12 06:51:20;;;;;;;5.75;4.63;;;28.80;83.20;;;;;;5015831;28;20596;-57
2023/06/12 06:53:46;;;;;;;8.57;5.20;;;28.40;83.90;;;;;;5026154;28;20112;-56
2023/06/12 06:56:12;;;;;;;5.55;4.53;;;28.70;84.40;;;;;;5026899;28;20045;-56
2023/06/12 06:58:37;;;;;;;7.40;4.35;;;28.80;84.30;;;;;;5034590;28;20038;-58
2023/06/12 07:01:03;;;;;;;8.07;4.72;;;29.20;82.90;;;;;;5029768;28;20049;-56
2023/06/12 07:03:28;;;;;;;7.57;4.72;;;29.30;82.90;;;;;;5033191;28;20402;-57
2023/06/12 07:05:54;;;;;;;5.68;4.88;;;29.30;82.70;;;;;;5067990;23;20074;-46
2023/06/12 07:08:20;;;;;;;8.25;4.78;;;29.40;82.50;;;;;;5022474;28;20045;-45
2023/06/12 07:10:45;;;;;;;7.70;4.72;;;29.10;82.20;;;;;;5029397;28;20045;-47
2023/06/12 07:13:12;;;;;;;4.68;4.18;;;29.00;82.50;;;;;;5011913;28;20049;-45
2023/06/12 07:15:37;;;;;;;8.52;4.63;;;29.00;82.50;;;;;;5039380;28;20052;-46
2023/06/12 07:18:03;;;;;;;4.78;4.20;;;29.20;83.00;;;;;;5032752;28;20046;-49
2023/06/12 07:20:29;;;;;;;8.18;4.40;;;29.60;83.00;;;;;;5030928;28;20046;-46
2023/06/12 07:22:55;;;;;;;6.28;4.55;;;29.30;80.40;;;;;;5029370;28;20501;-45
2023/06/12 07:25:20;;;;;;;8.93;4.95;;;29.20;81.80;;;;;;5028136;28;20701;-46
2023/06/12 07:27:46;;;;;;;7.68;4.88;;;28.90;81.70;;;;;;5030373;28;20049;-47
2023/06/12 07:30:12;;;;;;;6.75;4.82;;;29.00;82.00;;;;;;5033323;28;20049;-45
2023/06/12 07:32:38;;;;;;;8.10;4.35;;;28.90;82.30;;;;;;5034040;28;20390;-46
2023/06/12 07:35:05;;;;;;;7.65;4.38;;;29.40;82.40;;;;;;5027358;28;20042;-47
2023/06/12 07:37:35;;;;;;;7.22;4.55;;;29.40;82.80;;;;;;5028422;28;20150;-45
2023/06/12 07:40:08;;;;;;;6.45;4.55;;;29.30;82.30;;;;;;5033403;28;20049;-45
2023/06/12 07:42:33;;;;;;;6.75;4.28;;;29.70;83.50;;;;;;5029202;28;20049;-45
2023/06/12 07:44:59;;;;;;;10.70;4.72;;;29.30;82.40;;;;;;5031515;28;20056;-46
2023/06/12 07:47:25;;;;;;;4.93;4.30;;;28.80;82.70;;;;;;5030400;28;20033;-46
2023/06/12 07:49:50;;;;;;;7.03;4.03;;;28.60;83.40;;;;;;5041238;28;20037;-45
2023/06/12 07:52:16;;;;;;;5.85;4.35;;;28.20;82.80;;;;;;5039924;28;20060;-46
2023/06/12 07:54:42;;;;;;;5.07;3.85;;;27.90;83.50;;;;;;5030090;28;20375;-44
2023/06/12 07:57:08;;;;;;;4.80;3.63;;;27.90;83.00;;;;;;5030720;28;20088;-45
2023/06/12 07:59:33;;;;;;;6.68;4.35;;;27.70;81.50;;;;;;5032081;28;20037;-47
2023/06/12 08:02:00;;;;;;;8.25;4.40;;;27.50;83.80;;;;;;5030603;28;20133;-46
2023/06/12 08:04:26;;;;;;;7.95;4.13;;;27.30;82.20;;;;;;5028590;28;20904;-47
2023/06/12 08:06:54;;;;;;;6.03;4.47;;;27.20;83.70;;;;;;5026312;28;20071;-46
2023/06/12 08:09:19;;;;;;;6.85;4.63;;;27.10;82.50;;;;;;5037496;28;20463;-45
2023/06/12 08:11:45;;;;;;;5.13;3.95;;;27.20;82.40;;;;;;5031427;28;20041;-45
2023/06/12 08:14:11;;;;;;;6.53;4.40;;;27.30;83.20;;;;;;5030844;28;20056;-45
2023/06/12 08:16:37;;;;;;;5.22;4.55;;;27.30;82.30;;;;;;5030344;28;20463;-44
2023/06/12 08:19:03;;;;;;;5.28;4.22;;;27.60;82.10;;;;;;5032226;28;20125;-46
2023/06/12 08:21:28;;;;;;;5.20;4.40;;;27.40;82.40;;;;;;5029398;28;20397;-45
2023/06/12 08:23:54;;;;;;;4.95;4.10;;;27.60;80.80;;;;;;5036193;28;20064;-45
2023/06/12 08:26:21;;;;;;;7.90;4.40;;;27.40;81.80;;;;;;5030978;28;20052;-49
2023/06/12 08:28:50;;;;;;;11.63;4.43;;;27.40;81.80;;;;;;5032027;28;20030;-47
2023/06/12 08:31:15;;;;;;;7.70;4.30;;;27.40;83.10;;;;;;5027278;28;20033;-45
2023/06/12 08:33:41;;;;;;;5.78;4.32;;;27.40;81.60;;;;;;5027163;28;20513;-47
2023/06/12 08:36:07;;;;;;;5.68;4.47;;;27.70;82.00;;;;;;5022722;28;20033;-45
2023/06/12 08:38:32;;;;;;;5.28;4.57;;;28.10;82.50;;;;;;5030488;28;20050;-47
2023/06/12 08:41:00;;;;;;;10.00;4.55;;;28.00;80.70;;;;;;5017135;28;20041;-47
2023/06/12 08:43:29;;;;;;;7.20;4.35;;;28.10;80.30;;;;;;5029759;28;20367;-44
2023/06/12 08:45:56;;;;;;;13.15;4.88;;;28.20;81.30;;;;;;5029922;28;20057;-48
2023/06/12 08:48:26;;;;;;;8.50;4.75;;;28.40;80.70;;;;;;5038455;28;20037;-45
2023/06/12 08:50:52;;;;;;;12.80;4.60;;;28.40;79.20;;;;;;5031965;28;20110;-47
2023/06/12 08:53:18;;;;;;;9.95;4.95;;;28.60;79.90;;;;;;5024215;28;20034;-45
2023/06/12 08:55:44;;;;;;;6.22;4.25;;;28.90;80.40;;;;;;5032188;28;20041;-46
2023/06/12 08:58:10;;;;;;;6.07;4.80;;;29.00;79.90;;;;;;5042313;28;20033;-45
2023/06/12 09:00:37;;;;;;;5.57;4.37;;;28.70;77.90;;;;;;5030766;28;20041;-45
2023/06/12 09:03:04;;;;;;;5.53;4.43;;;28.80;78.70;;;;;;5024024;28;20651;-45
2023/06/12 09:05:33;;;;;;;7.40;4.78;;;28.70;79.50;;;;;;5013675;28;20049;-46
2023/06/12 09:08:03;;;;;;;6.03;4.88;;;28.80;79.10;;;;;;5024436;28;20049;-44
2023/06/12 09:10:33;;;;;;;7.55;4.50;;;28.70;77.50;;;;;;5029810;28;20054;-45
2023/06/12 09:13:01;;;;;;;5.13;4.55;;;28.80;77.90;;;;;;5028021;28;20511;-45
2023/06/12 09:15:27;;;;;;;9.43;4.88;;;28.90;78.70;;;;;;5038527;28;20466;-45
2023/06/12 09:17:54;;;;;;;6.53;5.30;;;29.00;78.90;;;;;;5030277;28;20076;-45
2023/06/12 09:20:33;;;;;;;6.60;4.78;;;28.90;75.90;;;;;;5033752;28;20099;-44
2023/06/12 09:23:04;;;;;;;10.57;4.90;;;29.10;76.00;;;;;;5028900;28;20049;-45
2023/06/12 09:25:36;;;;;;;6.28;5.65;;;29.20;77.20;;;;;;5029927;28;20038;-48
2023/06/12 09:28:03;;;;;;;5.80;5.20;;;29.40;76.00;;;;;;5019629;28;20049;-45
2023/06/12 09:30:33;;;;;;;8.57;5.57;;;29.40;76.70;;;;;;5031491;28;20045;-47
2023/06/12 09:33:03;;;;;;;6.35;5.75;;;29.50;74.50;;;;;;5051681;28;20493;-46
2023/06/12 09:35:29;;;;;;;6.82;5.13;;;29.40;73.40;;;;;;5051722;28;20091;-45
2023/06/12 09:37:57;;;;;;;6.20;5.13;;;29.50;74.00;;;;;;5039342;28;20427;-47
2023/06/12 09:40:24;;;;;;;6.55;5.40;;;29.40;74.40;;;;;;5031459;28;20048;-45
2023/06/12 09:42:49;;;;;;;5.85;5.25;;;29.70;73.00;;;;;;5032007;28;20065;-45
2023/06/12 09:45:16;;;;;;;7.80;5.20;;;29.80;72.50;;;;;;5030795;28;20053;-46
2023/06/12 09:47:46;;;;;;;5.63;5.13;;;29.80;68.90;;;;;;5031684;28;20099;-46
2023/06/12 09:50:13;;;;;;;5.68;5.18;;;29.80;69.90;;;;;;5019594;28;20473;-47
2023/06/12 09:52:43;;;;;;;5.47;4.97;;;29.80;69.10;;;;;;5031899;28;20038;-46
2023/06/12 09:55:15;;;;;;;7.75;4.88;;;30.00;67.60;;;;;;5030702;28;20037;-48
2023/06/12 09:57:43;;;;;;;5.70;5.10;;;30.10;67.40;;;;;;5031788;28;20045;-46
2023/06/12 10:00:11;;;;;;;5.18;4.68;;;29.70;62.20;;;;;;5031133;28;20120;-48
2023/06/12 10:02:40;;;;;;;5.63;4.75;;;30.00;65.30;;;;;;5028445;28;20526;-46
2023/06/12 10:05:07;;;;;;;5.45;4.90;;;29.80;64.60;;;;;;5024139;28;20049;-46
2023/06/12 10:07:39;;;;;;;6.63;5.03;;;29.80;64.20;;;;;;5035517;28;20504;-48
2023/06/12 10:10:07;;;;;;;6.65;5.38;;;29.80;65.00;;;;;;5035102;28;20048;-45
2023/06/12 10:12:34;;;;;;;6.50;5.53;;;29.90;63.90;;;;;;5031385;28;20128;-46
2023/06/12 10:15:03;;;;;;;;;;;30.10;64.60;;;;;;5027953;28;20049;-47
2023/06/12 10:17:29;;;;;;;7.70;5.55;;;30.30;64.70;;;;;;5025488;28;19921;-47
2023/06/12 10:19:57;;;;;;;5.95;5.40;;;30.10;63.10;;;;;;5031111;28;20574;-45
2023/06/12 10:22:23;;;;;;;6.78;5.70;;;29.90;63.20;;;;;;5039143;28;20099;-45
2023/06/12 10:24:49;;;;;;;5.90;5.50;;;30.30;65.40;;;;;;5041093;28;20422;-47
2023/06/12 10:27:16;;;;;;;7.75;5.93;;;30.50;63.90;;;;;;5029492;28;20084;-46
2023/06/12 10:29:42;;;;;;;6.68;6.07;;;30.60;62.80;;;;;;5030115;28;20037;-45
2023/06/12 10:32:14;;;;;;;7.03;6.18;;;30.80;64.20;;;;;;5028123;28;20044;-46
2023/06/12 10:34:48;;;;;;;7.22;6.53;;;30.70;60.50;;;;;;5029632;28;20041;-45
2023/06/12 10:37:28;;;;;;;6.30;5.70;;;30.40;59.70;;;;;;5028354;28;20061;-45
2023/06/12 10:40:15;;;;;;;18.75;7.05;;;30.50;59.80;;;;;;5025908;28;20046;-46
2023/06/12 10:42:42;;;;;;;6.95;6.35;;;30.70;58.20;;;;;;5029877;28;20463;-46
2023/06/12 10:45:17;;;;;;;6.85;6.25;;;30.70;59.90;;;;;;5029584;28;20041;-46
2023/06/12 10:47:58;;;;;;;8.80;6.13;;;30.60;58.20;;;;;;5032870;28;20076;-46
2023/06/12 10:50:26;;;;;;;8.13;6.00;;;30.70;58.60;;;;;;5024745;28;20102;-45
2023/06/12 10:52:55;;;;;;;6.93;6.30;;;30.40;56.80;;;;;;5028891;28;20379;-47
2023/06/12 10:55:21;;;;;;;6.47;5.88;;;30.20;57.60;;;;;;5029945;28;20120;-48
2023/06/12 10:57:52;;;;;;;6.88;5.82;;;30.50;58.00;;;;;;5032972;28;20044;-45
2023/06/12 11:00:20;;;;;;;6.97;6.03;;;30.30;56.40;;;;;;5030517;28;20417;-48
2023/06/12 11:02:47;;;;;;;7.13;5.97;;;30.20;56.80;;;;;;5029627;28;20148;-49
2023/06/12 11:05:17;;;;;;;;;;;30.30;57.60;;;;;;5029952;28;20046;-46
2023/06/12 11:07:42;;;;;;;7.28;6.57;;;30.40;56.20;;;;;;5027646;28;19951;-45
2023/06/12 11:10:12;;;;;;;7.07;6.13;;;30.50;57.50;;;;;;5029829;28;20041;-45
2023/06/12 11:12:49;;;;;;;6.82;5.75;;;30.40;56.90;;;;;;5026715;28;20045;-47
2023/06/12 11:15:15;;;;;;;8.77;5.93;;;30.40;57.10;;;;;;5028752;28;20137;-49
2023/06/12 11:17:42;;;;;;;37.17;8.55;;;30.50;56.30;;;;;;5011116;28;20128;-46
2023/06/12 11:20:09;;;;;;;7.82;5.90;;;30.30;56.40;;;;;;5034359;28;20042;-46
2023/06/12 11:22:35;;;;;;;10.10;5.80;;;30.40;55.70;;;;;;5030075;28;20132;-46
2023/06/12 11:25:01;;;;;;;5.28;4.78;;;30.30;55.60;;;;;;5033059;28;20545;-45
2023/06/12 11:27:27;;;;;;;5.47;5.07;;;30.40;55.20;;;;;;5028768;28;20391;-45
2023/06/12 11:29:53;;;;;;;5.45;4.88;;;30.50;55.30;;;;;;5034869;28;20057;-46
2023/06/12 11:32:20;;;;;;;5.43;5.00;;;30.70;56.30;;;;;;5033424;28;20046;-47
2023/06/12 11:34:46;;;;;;;7.93;5.50;;;30.50;55.20;;;;;;5033482;28;20414;-46
2023/06/12 11:37:20;;;;;;;5.82;5.25;;;30.30;55.40;;;;;;5011210;28;20049;-48
2023/06/12 11:39:46;;;;;;;12.00;5.78;;;29.90;54.20;;;;;;5030990;28;20050;-46
2023/06/12 11:42:12;;;;;;;6.22;5.45;;;30.10;55.10;;;;;;5029519;28;20045;-45
2023/06/12 11:44:40;;;;;;;8.75;4.82;;;30.40;56.00;;;;;;5033315;28;20056;-46
2023/06/12 11:47:07;;;;;;;5.07;4.68;;;30.80;56.70;;;;;;5028892;28;20033;-47
2023/06/12 11:49:37;;;;;;;6.40;4.82;;;30.90;56.70;;;;;;5031307;28;20076;-46
2023/06/12 11:52:04;;;;;;;6.05;5.10;;;30.50;54.00;;;;;;5028893;28;20149;-46
2023/06/12 11:54:31;;;;;;;7.65;5.25;;;30.10;54.00;;;;;;5025436;28;20049;-46
2023/06/12 11:57:02;;;;;;;4.80;4.40;;;30.40;56.00;;;;;;5033879;28;20053;-49
2023/06/12 11:59:37;;;;;;;9.05;4.93;;;30.60;56.30;;;;;;5034342;28;20049;-46
2023/06/12 12:02:03;;;;;;;5.30;4.80;;;30.70;56.40;;;;;;5028541;28;20050;-49
2023/06/12 12:04:30;;;;;;;8.32;5.10;;;30.50;55.60;;;;;;5024496;28;20500;-46
2023/06/12 12:06:57;;;;;;;5.72;4.75;;;30.50;56.30;;;;;;5025497;28;22034;-47
2023/06/12 12:09:23;;;;;;;;;;;30.40;55.80;;;;;;5021433;28;20049;-46
2023/06/12 12:11:49;;;;;;;;;;;30.10;54.60;;;;;;5021117;28;19947;-45
2023/06/12 12:14:15;;;;;;;4.80;4.40;;;29.80;52.60;;;;;;5024077;28;20007;-46
2023/06/12 12:16:43;;;;;;;5.32;4.70;;;29.90;53.20;;;;;;5022510;28;20761;-47
2023/06/12 12:19:29;;;;;;;5.18;4.78;;;30.30;54.40;;;;;;5022688;28;20544;-46
2023/06/12 12:21:56;;;;;;;5.43;4.93;;;30.00;55.00;;;;;;5021117;28;20095;-47
2023/06/12 12:24:22;;;;;;;5.70;4.70;;;29.50;54.50;;;;;;5022335;28;20205;-47
2023/06/12 12:26:50;;;;;;;5.43;4.90;;;29.50;55.70;;;;;;5022966;28;20187;-48
2023/06/12 12:29:17;;;;;;;6.82;4.88;;;29.80;56.80;;;;;;5019963;28;20048;-47
2023/06/12 12:31:42;;;;;;;10.47;5.10;;;30.20;57.90;;;;;;5027523;28;20041;-46
2023/06/12 12:34:09;;;;;;;6.32;4.82;;;30.50;57.60;;;;;;5025086;28;20295;-46
2023/06/12 12:36:36;;;;;;;7.35;4.78;;;30.80;58.00;;;;;;5023364;28;20056;-46
2023/06/12 12:39:02;;;;;;;4.97;4.57;;;31.30;58.00;;;;;;5031714;28;20057;-48
2023/06/12 12:41:28;;;;;;;4.68;4.28;;;31.60;57.30;;;;;;5032150;28;20087;-46
2023/06/12 12:43:54;;;;;;;4.75;4.38;;;32.00;54.90;;;;;;5030066;28;20037;-46
2023/06/12 12:46:22;;;;;;;5.68;4.63;;;32.00;54.10;;;;;;5032480;28;20418;-47
2023/06/12 12:48:49;;;;;;;5.45;4.95;;;32.10;54.30;;;;;;5013847;28;20037;-47